Time;durP1;ratioP1;P1;durP2;ratioP2;P2;SDS_P1;SDS_P2;PMS_P1;PMS_P2;Temp;Humidity;BMP_temperature;BMP_pressure;BME280_temperature;BME280_humidity;BME280_pressure;Samples;Min_cycle;Max_cycle;Signal;HPM_P1;HPM_P2
2022/03/11 00:00:43;;;;;;;5.47;4.50;;;;;;;-4.80;57.05;97279.00;5113512;28;20024;-66
2022/03/11 00:03:10;;;;;;;5.88;4.00;;;;;;;-4.78;57.01;97277.38;5113345;28;20024;-65
2022/03/11 00:05:36;;;;;;;6.15;3.95;;;;;;;-4.82;56.30;97277.28;5113360;28;20477;-65
2022/03/11 00:08:02;;;;;;;5.65;3.75;;;;;;;-4.82;56.09;97277.28;5112239;28;20023;-66
2022/03/11 00:10:28;;;;;;;5.95;3.55;;;;;;;-4.82;55.66;97274.72;5113373;28;20023;-66
2022/03/11 00:12:54;;;;;;;5.35;4.38;;;;;;;-4.80;56.57;97276.44;5113320;28;20493;-65
2022/03/11 00:15:19;;;;;;;10.45;4.05;;;;;;;-4.77;56.14;97276.56;5113331;28;20028;-66
2022/03/11 00:17:45;;;;;;;6.63;4.13;;;;;;;-4.71;55.98;97271.66;5113379;28;20034;-66
2022/03/11 00:20:11;;;;;;;6.35;4.60;;;;;;;-4.73;55.50;97268.22;5113141;28;20051;-65
2022/03/11 00:22:36;;;;;;;6.47;4.40;;;;;;;-4.70;55.82;97263.19;5113470;28;20031;-65
2022/03/11 00:25:02;;;;;;;7.43;4.53;;;;;;;-4.66;55.50;97264.16;5113344;28;20055;-66
2022/03/11 00:27:28;;;;;;;8.25;4.75;;;;;;;-4.74;55.96;97262.22;5113206;28;20028;-67
2022/03/11 00:29:54;;;;;;;6.60;4.25;;;;;;;-4.71;55.71;97261.44;5113157;28;20031;-67
2022/03/11 00:32:20;;;;;;;8.32;4.05;;;;;;;-4.66;55.89;97259.94;5113114;28;20027;-66
2022/03/11 00:34:45;;;;;;;4.80;4.10;;;;;;;-4.66;55.99;97266.72;5113255;28;20028;-66
2022/03/11 00:37:11;;;;;;;7.10;4.32;;;;;;;-4.66;56.10;97267.59;5113293;28;20018;-65
2022/03/11 00:39:37;;;;;;;6.43;4.07;;;;;;;-4.65;57.05;97265.91;5113051;28;20031;-66
2022/03/11 00:42:03;;;;;;;4.93;3.97;;;;;;;-4.78;57.40;97252.72;5113089;28;20122;-66
2022/03/11 00:44:29;;;;;;;8.38;4.40;;;;;;;-4.86;57.66;97242.25;5112988;28;20478;-67
2022/03/11 00:46:55;;;;;;;6.22;3.50;;;;;;;-4.85;56.71;97253.34;5113046;28;20129;-66
2022/03/11 00:49:20;;;;;;;5.40;4.18;;;;;;;-4.92;56.70;97254.78;5115658;28;20051;-66
2022/03/11 00:51:46;;;;;;;5.72;3.60;;;;;;;-4.82;56.73;97256.84;5116994;28;20453;-65
2022/03/11 00:54:12;;;;;;;10.43;3.83;;;;;;;-4.74;56.78;97258.78;5116821;28;20031;-66
2022/03/11 00:56:38;;;;;;;6.25;3.97;;;;;;;-4.84;56.02;97255.91;5116778;28;20028;-66
2022/03/11 00:59:04;;;;;;;7.00;4.20;;;;;;;-4.93;54.91;97255.63;5115529;28;20546;-65
2022/03/11 01:01:29;;;;;;;5.50;3.88;;;;;;;-4.98;54.24;97259.69;5116700;28;20126;-66
2022/03/11 01:03:55;;;;;;;7.95;4.18;;;;;;;-4.99;53.88;97258.84;5116572;28;20027;-66
2022/03/11 01:06:20;;;;;;;5.70;3.90;;;;;;;-5.04;54.35;97259.47;5116667;28;20469;-66
2022/03/11 01:08:46;;;;;;;8.55;4.35;;;;;;;-5.05;54.67;97260.28;5116529;28;20726;-66
2022/03/11 01:11:11;;;;;;;6.22;3.50;;;;;;;-5.07;55.23;97255.13;5116450;28;20027;-67
2022/03/11 01:13:39;;;;;;;6.97;3.45;;;;;;;-5.08;55.63;97256.81;5116469;28;20012;-66
2022/03/11 01:16:05;;;;;;;8.73;4.30;;;;;;;-5.06;55.68;97259.41;5116462;28;20026;-67
2022/03/11 01:18:31;;;;;;;4.85;3.55;;;;;;;-5.01;56.32;97260.44;5116275;28;20016;-66
2022/03/11 01:20:57;;;;;;;6.68;4.30;;;;;;;-4.97;56.17;97264.84;5116066;28;20088;-65
2022/03/11 01:23:23;;;;;;;6.25;4.13;;;;;;;-4.86;55.65;97264.34;5116301;28;20038;-66
2022/03/11 01:25:49;;;;;;;5.68;3.75;;;;;;;-4.83;56.99;97264.47;5116270;28;20106;-66
2022/03/11 01:28:14;;;;;;;6.45;3.80;;;;;;;-4.79;57.63;97265.44;5116248;28;20473;-66
2022/03/11 01:30:41;;;;;;;5.40;3.88;;;;;;;-4.74;57.59;97259.66;5115999;28;20020;-66
2022/03/11 01:33:06;;;;;;;4.53;3.83;;;;;;;-4.82;58.06;97256.84;5116084;28;20080;-66
2022/03/11 01:35:32;;;;;;;8.77;5.10;;;;;;;-4.78;57.65;97260.38;5115960;28;20020;-67
2022/03/11 01:37:58;;;;;;;11.45;4.75;;;;;;;-4.78;57.97;97257.84;5115971;28;20022;-66
2022/03/11 01:40:24;;;;;;;5.90;3.95;;;;;;;-4.77;57.83;97259.56;5116029;28;20418;-67
2022/03/11 01:42:49;;;;;;;5.53;3.55;;;;;;;-4.87;55.36;97257.50;5115721;28;20444;-66
2022/03/11 01:45:15;;;;;;;5.63;3.67;;;;;;;-4.90;54.81;97257.41;5115847;28;20055;-65
2022/03/11 01:47:41;;;;;;;5.82;3.95;;;;;;;-4.92;53.93;97249.69;5115802;27;20115;-67
2022/03/11 01:50:06;;;;;;;5.88;4.43;;;;;;;-5.08;53.60;97254.25;5115805;28;20465;-65
2022/03/11 01:52:33;;;;;;;7.07;4.63;;;;;;;-5.07;53.30;97255.13;5115764;28;20092;-66
2022/03/11 01:54:58;;;;;;;5.80;4.28;;;;;;;-5.20;53.27;97248.72;5115615;28;20031;-66
2022/03/11 01:57:25;;;;;;;5.75;3.72;;;;;;;-5.18;53.69;97244.53;5115639;28;20020;-66
2022/03/11 01:59:50;;;;;;;5.85;3.83;;;;;;;-5.23;53.07;97239.28;5114695;28;20077;-65
2022/03/11 02:02:16;;;;;;;4.80;3.60;;;;;;;-5.22;53.47;97250.34;5115451;28;20020;-66
2022/03/11 02:04:41;;;;;;;5.53;3.42;;;;;;;-5.35;53.52;97256.69;5115413;27;20401;-66
2022/03/11 02:07:08;;;;;;;5.43;3.40;;;;;;;-5.36;53.81;97257.53;5115379;28;20067;-66
2022/03/11 02:09:34;;;;;;;7.65;4.55;;;;;;;-5.38;54.46;97256.59;5115299;28;20414;-66
2022/03/11 02:12:00;;;;;;;7.03;3.53;;;;;;;-5.40;54.32;97263.31;5115370;28;20109;-66
2022/03/11 02:14:25;;;;;;;5.55;3.22;;;;;;;-5.55;55.08;97255.94;5115409;28;20016;-65
2022/03/11 02:16:51;;;;;;;6.45;3.70;;;;;;;-5.58;55.18;97251.63;5115286;28;20047;-66
2022/03/11 02:19:16;;;;;;;5.22;3.67;;;;;;;-5.63;56.25;97258.25;5115077;28;20012;-66
2022/03/11 02:21:47;;;;;;;6.13;3.90;;;;;;;-5.66;56.81;97256.44;5114960;28;20097;-66
2022/03/11 02:24:16;;;;;;;5.68;3.70;;;;;;;-5.61;57.17;97260.03;5115152;28;20536;-66
2022/03/11 02:26:42;;;;;;;6.95;3.75;;;;;;;-5.56;56.86;97250.00;5115054;28;20083;-66
2022/03/11 02:29:08;;;;;;;6.78;3.78;;;;;;;-5.52;57.41;97262.06;5114921;28;20101;-66
2022/03/11 02:31:34;;;;;;;5.60;3.67;;;;;;;-5.58;57.83;97260.16;5114847;28;20080;-66
2022/03/11 02:34:02;;;;;;;8.95;3.70;;;;;;;-5.73;57.63;97263.00;5114969;28;20376;-66
2022/03/11 02:36:27;;;;;;;8.57;4.97;;;;;;;-5.81;57.56;97259.25;5114892;27;20157;-65
2022/03/11 02:38:53;;;;;;;6.15;4.03;;;;;;;-5.82;57.47;97257.53;5114809;28;20103;-66
2022/03/11 02:41:19;;;;;;;6.32;4.80;;;;;;;-5.81;57.70;97266.91;5114764;28;20062;-65
2022/03/11 02:43:45;;;;;;;5.65;3.78;;;;;;;-5.79;58.66;97264.41;5114706;28;20473;-66
2022/03/11 02:46:12;;;;;;;5.97;3.92;;;;;;;-5.77;58.63;97267.91;5114572;28;20530;-66
2022/03/11 02:48:38;;;;;;;13.48;4.20;;;;;;;-5.88;58.76;97264.94;5114681;28;20405;-65
2022/03/11 02:51:04;;;;;;;7.65;4.05;;;;;;;-5.91;58.35;97254.63;5114616;28;20024;-65
2022/03/11 02:53:30;;;;;;;7.45;4.40;;;;;;;-5.87;59.03;97264.16;5114591;28;20097;-66
2022/03/11 02:55:58;;;;;;;7.05;4.32;;;;;;;-5.89;58.86;97261.53;5114426;28;20038;-66
2022/03/11 02:58:23;;;;;;;6.63;3.90;;;;;;;-5.91;56.66;97263.16;5114499;28;20495;-67
2022/03/11 03:00:49;;;;;;;7.47;5.07;;;;;;;-6.03;56.35;97275.41;5114280;28;20102;-65
2022/03/11 03:03:15;;;;;;;7.70;4.18;;;;;;;-6.01;55.66;97272.13;5114244;28;20030;-65
2022/03/11 03:05:40;;;;;;;7.43;3.70;;;;;;;-6.03;55.24;97272.84;5114302;28;20019;-65
2022/03/11 03:08:07;;;;;;;5.10;3.50;;;;;;;-6.07;55.41;97276.13;5114195;28;20019;-65
2022/03/11 03:10:32;;;;;;;5.93;3.95;;;;;;;-6.02;55.67;97280.56;5114277;28;20439;-66
2022/03/11 03:12:58;;;;;;;6.90;4.13;;;;;;;-6.02;56.08;97275.47;5114013;27;20058;-67
2022/03/11 03:15:23;;;;;;;5.72;3.88;;;;;;;-6.02;55.84;97279.72;5114231;28;20023;-66
2022/03/11 03:17:49;;;;;;;4.88;3.05;;;;;;;-6.04;55.58;97287.34;5114071;28;20093;-66
2022/03/11 03:20:15;;;;;;;5.07;3.38;;;;;;;-6.03;56.07;97289.03;5113733;27;20067;-66
2022/03/11 03:22:40;;;;;;;8.23;3.80;;;;;;;-6.03;55.76;97299.22;5113886;28;20020;-66
2022/03/11 03:25:08;;;;;;;5.93;3.90;;;;;;;-6.01;56.50;97305.25;5113969;28;20031;-66
2022/03/11 03:27:33;;;;;;;6.45;3.95;;;;;;;-6.02;54.90;97298.41;5114135;28;20031;-66
2022/03/11 03:29:59;;;;;;;6.38;3.58;;;;;;;-5.96;54.06;97303.75;5113896;28;20087;-66
2022/03/11 03:32:24;;;;;;;6.10;3.63;;;;;;;-6.00;54.28;97295.91;5113801;28;20035;-67
2022/03/11 03:34:50;;;;;;;8.10;3.95;;;;;;;-6.14;54.11;97298.81;5113779;28;20106;-66
2022/03/11 03:37:16;;;;;;;5.43;3.75;;;;;;;-6.13;54.31;97292.94;5113730;28;20409;-67
2022/03/11 03:39:42;;;;;;;6.80;3.72;;;;;;;-6.17;53.85;97288.50;5113801;28;20031;-65
2022/03/11 03:42:09;;;;;;;5.57;3.88;;;;;;;-6.21;54.33;97281.56;5113689;28;20028;-66
2022/03/11 03:44:35;;;;;;;7.50;3.47;;;;;;;-6.12;54.28;97297.22;5113651;28;20047;-65
2022/03/11 03:47:00;;;;;;;5.35;3.60;;;;;;;-6.12;53.96;97292.13;5113583;28;20023;-66
2022/03/11 03:49:28;;;;;;;7.47;3.53;;;;;;;-6.20;53.36;97293.50;5113653;28;20034;-65
2022/03/11 03:51:54;;;;;;;4.38;3.13;;;;;;;-6.20;53.24;97298.59;5113619;28;20106;-66
2022/03/11 03:54:20;;;;;;;5.90;3.42;;;;;;;-6.31;52.79;97302.38;5113563;28;20047;-66
2022/03/11 03:56:46;;;;;;;3.88;3.00;;;;;;;-6.43;52.91;97298.53;5113425;28;20089;-65
2022/03/11 03:59:12;;;;;;;5.78;3.35;;;;;;;-6.51;53.16;97294.78;5113521;28;20066;-66
2022/03/11 04:01:42;;;;;;;7.43;3.90;;;;;;;-6.54;53.12;97295.53;5113635;28;20030;-66
2022/03/11 04:04:09;;;;;;;5.82;3.92;;;;;;;-6.45;53.44;97304.38;5112289;28;20032;-66
2022/03/11 04:06:37;;;;;;;3.67;2.95;;;;;;;-6.40;52.59;97305.41;5113581;28;20035;-66
2022/03/11 04:09:06;;;;;;;5.53;3.40;;;;;;;-6.42;53.21;97304.50;5113435;28;20047;-66
2022/03/11 04:11:33;;;;;;;5.82;3.63;;;;;;;-6.43;52.86;97308.72;5113391;28;20495;-66
2022/03/11 04:13:59;;;;;;;7.18;3.65;;;;;;;-6.43;53.76;97311.25;5113345;28;20024;-66
2022/03/11 04:16:25;;;;;;;7.65;3.22;;;;;;;-6.37;53.54;97298.78;5113326;28;20028;-67
2022/03/11 04:18:51;;;;;;;12.82;5.82;;;;;;;-6.42;53.24;97301.94;5113421;28;20094;-66
2022/03/11 04:21:18;;;;;;;21.90;13.30;;;;;;;-6.42;53.02;97300.25;5113094;28;20123;-66
2022/03/11 04:23:45;;;;;;;14.38;7.68;;;;;;;-6.34;53.73;97313.31;5114860;28;20024;-66
2022/03/11 04:26:11;;;;;;;6.25;4.53;;;;;;;-6.39;53.34;97308.03;5117429;28;20020;-66
2022/03/11 04:28:38;;;;;;;7.50;4.43;;;;;;;-6.47;52.34;97302.59;5117462;28;20108;-67
2022/03/11 04:31:04;;;;;;;4.57;3.33;;;;;;;-6.41;53.15;97307.06;5117302;28;20032;-66
2022/03/11 04:33:30;;;;;;;6.07;3.10;;;;;;;-6.40;52.17;97310.50;5117158;28;20054;-66
2022/03/11 04:35:56;;;;;;;5.80;3.67;;;;;;;-6.57;52.43;97312.38;5117230;28;20055;-66
2022/03/11 04:38:21;;;;;;;6.03;3.55;;;;;;;-6.60;51.88;97318.19;5117205;28;20065;-66
2022/03/11 04:40:47;;;;;;;3.70;3.05;;;;;;;-6.72;52.20;97324.50;5117179;28;20023;-66
2022/03/11 04:43:13;;;;;;;5.85;3.17;;;;;;;-6.68;52.36;97324.63;5117002;28;20465;-66
2022/03/11 04:45:39;;;;;;;3.78;2.47;;;;;;;-6.78;51.75;97323.34;5117092;28;20102;-67
2022/03/11 04:48:05;;;;;;;5.13;2.92;;;;;;;-6.80;52.03;97332.63;5116974;28;20103;-66
2022/03/11 04:50:30;;;;;;;5.20;3.08;;;;;;;-6.77;52.05;97317.47;5116938;28;20069;-66
2022/03/11 04:52:56;;;;;;;5.82;3.92;;;;;;;-6.77;52.67;97320.88;5116841;28;20492;-66
2022/03/11 04:55:22;;;;;;;5.93;3.47;;;;;;;-6.79;52.18;97325.06;5116884;28;20031;-67
2022/03/11 04:57:48;;;;;;;4.85;3.10;;;;;;;-6.74;51.76;97325.25;5116833;28;20354;-67
2022/03/11 05:00:15;;;;;;;7.25;3.40;;;;;;;-6.74;52.04;97322.72;5116786;28;20031;-67
2022/03/11 05:02:44;;;;;;;6.85;3.83;;;;;;;-6.68;51.89;97317.00;5116735;28;20535;-67
2022/03/11 05:05:11;;;;;;;12.73;4.15;;;;;;;-6.56;52.16;97326.84;5116767;28;20110;-66
2022/03/11 05:07:37;;;;;;;8.50;4.95;;;;;;;-6.50;51.55;97332.19;5116585;28;20068;-67
2022/03/11 05:10:04;;;;;;;7.82;4.85;;;;;;;-6.44;51.37;97326.47;5116527;28;20019;-67
2022/03/11 05:12:31;;;;;;;6.05;3.83;;;;;;;-6.41;51.43;97322.38;5116503;27;20030;-65
2022/03/11 05:14:57;;;;;;;6.50;4.03;;;;;;;-6.32;51.80;97329.53;5116487;27;20100;-67
2022/03/11 05:17:23;;;;;;;5.57;3.88;;;;;;;-6.27;51.88;97329.69;5116467;28;20110;-67
2022/03/11 05:19:48;;;;;;;5.97;3.47;;;;;;;-6.31;52.25;97323.63;5116121;28;20038;-66
2022/03/11 05:22:14;;;;;;;6.70;4.03;;;;;;;-6.22;52.39;97324.00;5116505;28;20024;-66
2022/03/11 05:24:40;;;;;;;7.97;4.13;;;;;;;-5.99;52.37;97323.16;5116225;27;20024;-66
2022/03/11 05:27:07;;;;;;;8.25;3.60;;;;;;;-5.36;50.01;97317.06;5116229;28;20020;-66
2022/03/11 05:29:34;;;;;;;5.53;3.80;;;;;;;-4.73;49.48;97324.38;5116118;28;20412;-67
2022/03/11 05:32:00;;;;;;;6.43;3.30;;;;;;;-4.21;47.66;97330.38;5116143;28;20470;-66
2022/03/11 05:34:25;;;;;;;5.07;3.22;;;;;;;-3.57;46.01;97322.16;5115200;28;20030;-66
2022/03/11 05:36:51;;;;;;;5.03;3.40;;;;;;;-3.23;45.25;97326.53;5115396;28;20026;-66
2022/03/11 05:39:17;;;;;;;7.28;3.25;;;;;;;-3.21;44.13;97330.00;5116091;28;20016;-66
2022/03/11 05:41:44;;;;;;;4.95;3.33;;;;;;;-2.96;44.53;97326.47;5116110;27;20034;-66
2022/03/11 05:44:10;;;;;;;6.90;3.85;;;;;;;-3.04;44.15;97327.97;5115782;28;20381;-66
2022/03/11 05:46:36;;;;;;;7.53;4.43;;;;;;;-3.39;45.08;97331.22;5115856;28;20024;-66
2022/03/11 05:49:02;;;;;;;5.82;3.83;;;;;;;-3.82;46.48;97329.06;5115774;28;20020;-66
2022/03/11 05:51:27;;;;;;;6.82;4.20;;;;;;;-4.12;47.10;97331.50;5115779;28;20027;-67
2022/03/11 05:53:53;;;;;;;7.93;4.20;;;;;;;-4.41;47.50;97324.63;5115767;28;20024;-66
2022/03/11 05:56:20;;;;;;;5.70;3.60;;;;;;;-4.50;47.90;97331.97;5115727;28;20047;-66
2022/03/11 05:58:46;;;;;;;5.90;3.95;;;;;;;-4.72;48.12;97337.19;5115646;28;20020;-66
2022/03/11 06:01:12;;;;;;;5.35;3.67;;;;;;;-5.00;49.48;97343.00;5115488;28;20024;-66
2022/03/11 06:03:38;;;;;;;5.68;3.70;;;;;;;-5.11;49.65;97334.97;5115398;28;20034;-66
2022/03/11 06:06:03;;;;;;;6.85;4.45;;;;;;;-5.23;50.06;97341.34;5115526;28;20020;-66
2022/03/11 06:08:29;;;;;;;6.68;4.25;;;;;;;-5.34;50.68;97345.16;5115449;28;20377;-66
2022/03/11 06:10:54;;;;;;;7.88;4.10;;;;;;;-5.28;50.92;97344.53;5115375;28;20473;-66
2022/03/11 06:13:20;;;;;;;7.07;3.53;;;;;;;-5.32;51.42;97343.56;5115381;28;20536;-67
2022/03/11 06:15:46;;;;;;;9.50;4.18;;;;;;;-5.46;51.29;97353.22;5115297;28;20028;-66
2022/03/11 06:18:15;;;;;;;7.43;3.97;;;;;;;-5.46;52.22;97358.31;5115377;28;20062;-66
2022/03/11 06:20:41;;;;;;;5.00;3.50;;;;;;;-5.62;51.39;97354.31;5115024;27;20461;-66
2022/03/11 06:23:07;;;;;;;5.90;3.67;;;;;;;-5.73;52.02;97356.44;5115010;28;20465;-66
2022/03/11 06:25:33;;;;;;;6.70;3.90;;;;;;;-5.64;52.35;97355.94;5115041;28;20077;-66
2022/03/11 06:27:58;;;;;;;7.65;4.50;;;;;;;-5.56;52.34;97353.69;5115017;28;20016;-66
2022/03/11 06:30:24;;;;;;;5.95;3.70;;;;;;;-5.45;51.97;97334.56;5114988;28;20024;-66
2022/03/11 06:32:50;;;;;;;6.88;4.13;;;;;;;-5.26;51.63;97348.00;5114995;28;20115;-66
2022/03/11 06:35:16;;;;;;;8.57;3.72;;;;;;;-5.00;49.72;97361.72;5114894;28;20016;-66
2022/03/11 06:37:46;;;;;;;7.53;3.92;;;;;;;-5.09;49.70;97361.41;5114906;28;20020;-66
2022/03/11 06:40:13;;;;;;;5.93;3.58;;;;;;;-5.18;49.94;97359.38;5114813;28;20016;-66
2022/03/11 06:42:40;;;;;;;9.40;4.20;;;;;;;-5.30;49.43;97364.88;5114734;28;20019;-66
2022/03/11 06:45:07;;;;;;;5.85;3.90;;;;;;;-5.28;50.02;97377.69;5114613;28;20038;-65
2022/03/11 06:47:33;;;;;;;7.78;3.47;;;;;;;-5.46;48.86;97384.72;5114225;28;20024;-64
2022/03/11 06:49:59;;;;;;;7.53;3.65;;;;;;;-5.50;49.05;97385.41;5114566;28;20015;-64
2022/03/11 06:52:24;;;;;;;6.70;3.33;;;;;;;-5.47;48.38;97392.31;5114565;28;20027;-64
2022/03/11 06:54:50;;;;;;;6.68;3.60;;;;;;;-5.50;48.46;97389.63;5114513;28;20016;-64
2022/03/11 06:57:17;;;;;;;7.53;4.32;;;;;;;-5.48;48.82;97390.56;5114405;28;20028;-64
2022/03/11 06:59:46;;;;;;;6.93;3.42;;;;;;;-5.46;48.56;97388.94;5114373;28;20051;-64
2022/03/11 07:02:12;;;;;;;6.10;3.83;;;;;;;-4.87;47.64;97377.50;5114293;28;20492;-64
2022/03/11 07:04:38;;;;;;;7.68;3.97;;;;;;;-4.28;45.83;97387.22;5114382;28;20024;-64
2022/03/11 07:07:04;;;;;;;5.55;3.35;;;;;;;-3.52;44.54;97385.41;5113256;28;20016;-65
2022/03/11 07:09:30;;;;;;;7.97;3.97;;;;;;;-2.15;42.16;97371.31;5114174;27;20382;-64
2022/03/11 07:12:01;;;;;;;7.95;3.85;;;;;;;-0.98;40.38;97365.44;5114242;28;20020;-65
2022/03/11 07:14:27;;;;;;;5.72;4.07;;;;;;;0.06;36.90;97369.09;5114212;28;20110;-64
2022/03/11 07:16:56;;;;;;;6.13;3.72;;;;;;;0.28;35.53;97379.75;5114273;28;20583;-64
2022/03/11 07:19:22;;;;;;;5.68;3.85;;;;;;;0.06;37.23;97372.53;5114063;28;20107;-65
2022/03/11 07:21:48;;;;;;;4.70;3.50;;;;;;;0.03;35.10;97359.59;5113816;28;20739;-64
2022/03/11 07:24:13;;;;;;;5.65;3.38;;;;;;;0.13;35.59;97370.94;5113885;28;20489;-65
2022/03/11 07:26:41;;;;;;;8.20;3.35;;;;;;;0.28;34.67;97356.59;5113947;28;20074;-64
2022/03/11 07:29:07;;;;;;;6.35;3.67;;;;;;;0.42;34.75;97367.97;5113856;28;20389;-64
2022/03/11 07:31:33;;;;;;;5.88;3.50;;;;;;;-0.07;35.74;97376.59;5113745;28;20027;-64
2022/03/11 07:33:59;;;;;;;5.13;4.07;;;;;;;-0.26;35.53;97384.00;5113925;28;20038;-64
2022/03/11 07:36:25;;;;;;;9.90;3.92;;;;;;;-0.64;36.42;97379.84;5113843;28;20016;-64
2022/03/11 07:38:51;;;;;;;5.90;3.60;;;;;;;-0.62;36.53;97369.59;5113754;28;20023;-64
2022/03/11 07:41:17;;;;;;;5.38;3.63;;;;;;;-0.81;36.27;97370.94;5113730;28;20031;-64
2022/03/11 07:43:44;;;;;;;6.03;3.67;;;;;;;-0.56;37.64;97377.44;5113710;27;20485;-64
2022/03/11 07:46:14;;;;;;;4.55;3.35;;;;;;;-0.29;36.43;97378.81;5113659;28;20039;-64
2022/03/11 07:48:41;;;;;;;5.80;3.90;;;;;;;-0.61;36.11;97373.88;5113647;28;20069;-64
2022/03/11 07:51:08;;;;;;;4.18;3.13;;;;;;;-0.84;36.78;97378.56;5113620;28;20030;-65
2022/03/11 07:53:35;;;;;;;4.88;3.55;;;;;;;-0.60;37.31;97380.75;5113564;28;20056;-64
2022/03/11 07:56:01;;;;;;;10.05;3.70;;;;;;;-0.79;36.92;97371.81;5113541;28;20373;-64
2022/03/11 07:58:26;;;;;;;8.55;3.90;;;;;;;-0.88;36.77;97376.78;5112838;28;20026;-64
2022/03/11 08:00:52;;;;;;;4.75;3.35;;;;;;;-0.98;38.38;97383.41;5113579;28;20023;-64
2022/03/11 08:03:19;;;;;;;7.55;3.40;;;;;;;-0.65;37.10;97382.38;5113364;28;20469;-64
2022/03/11 08:05:44;;;;;;;6.05;3.58;;;;;;;-0.55;36.84;97374.00;5113479;28;20122;-64
2022/03/11 08:08:11;;;;;;;6.45;3.50;;;;;;;-0.70;35.70;97366.00;5112228;28;20062;-64
2022/03/11 08:10:37;;;;;;;5.40;3.47;;;;;;;-0.65;36.47;97364.38;5113470;28;20028;-64
2022/03/11 08:13:06;;;;;;;5.20;3.53;;;;;;;-0.43;37.15;97372.50;5113518;28;20036;-64
2022/03/11 08:15:32;;;;;;;6.65;3.67;;;;;;;-0.37;37.19;97376.94;5113489;28;20062;-65
2022/03/11 08:17:58;;;;;;;7.10;3.53;;;;;;;-0.42;36.60;97375.09;5113357;28;20076;-64
2022/03/11 08:20:24;;;;;;;5.50;3.20;;;;;;;-0.36;35.92;97376.06;5113140;28;20040;-63
2022/03/11 08:22:50;;;;;;;3.65;2.60;;;;;;;-0.66;34.17;97376.38;5113215;28;20028;-64
2022/03/11 08:25:17;;;;;;;4.57;3.20;;;;;;;-1.34;36.85;97383.50;5113343;28;20024;-64
2022/03/11 08:27:43;;;;;;;5.25;3.78;;;;;;;-0.97;36.85;97368.03;5113335;28;20023;-64
2022/03/11 08:30:11;;;;;;;4.38;3.20;;;;;;;-0.66;36.11;97372.94;5113314;28;20016;-64
2022/03/11 08:32:37;;;;;;;6.22;3.15;;;;;;;-0.47;36.78;97375.88;5113136;28;20023;-64
2022/03/11 08:35:03;;;;;;;6.10;3.67;;;;;;;-0.21;35.77;97366.06;5113247;28;20028;-64
2022/03/11 08:37:29;;;;;;;5.13;3.55;;;;;;;-0.08;36.11;97376.56;5113122;28;20019;-64
2022/03/11 08:39:55;;;;;;;4.72;3.40;;;;;;;0.01;35.32;97368.16;5113183;28;20027;-64
2022/03/11 08:42:21;;;;;;;6.03;2.70;;;;;;;-0.23;34.82;97372.03;5113121;28;20454;-64
2022/03/11 08:44:46;;;;;;;7.47;3.30;;;;;;;-0.52;36.44;97361.22;5113045;28;20427;-64
2022/03/11 08:47:13;;;;;;;5.35;3.60;;;;;;;-0.41;36.64;97365.69;5113026;28;20023;-63
2022/03/11 08:49:39;;;;;;;5.13;3.15;;;;;;;-0.31;36.36;97365.03;5111778;28;20458;-64
2022/03/11 08:52:05;;;;;;;5.00;3.25;;;;;;;-0.25;36.14;97356.56;5113182;28;20077;-64
2022/03/11 08:54:31;;;;;;;4.65;3.42;;;;;;;-0.33;34.91;97358.97;5112969;28;20020;-63
2022/03/11 08:56:59;;;;;;;6.20;3.42;;;;;;;-0.34;36.93;97362.41;5112919;28;20500;-65
2022/03/11 08:59:25;;;;;;;5.93;3.13;;;;;;;-0.61;34.97;97360.19;5113038;28;20027;-65
2022/03/11 09:01:51;;;;;;;4.53;3.10;;;;;;;-0.59;35.94;97348.22;5113012;28;20381;-65
2022/03/11 09:04:17;;;;;;;8.20;3.35;;;;;;;-0.47;37.08;97348.47;5112866;28;20028;-63
2022/03/11 09:06:43;;;;;;;5.78;3.28;;;;;;;-0.45;35.13;97366.50;5112986;28;20038;-63
2022/03/11 09:09:08;;;;;;;4.13;3.33;;;;;;;-0.40;37.25;97355.44;5113228;28;20024;-64
2022/03/11 09:11:35;;;;;;;5.05;3.42;;;;;;;-0.42;37.11;97351.13;5116584;28;20057;-66
2022/03/11 09:14:01;;;;;;;5.63;3.42;;;;;;;-0.77;37.21;97352.16;5116546;28;20388;-65
2022/03/11 09:16:28;;;;;;;4.78;3.22;;;;;;;-0.82;36.37;97352.06;5116362;28;20076;-65
2022/03/11 09:18:56;;;;;;;5.93;3.22;;;;;;;-1.27;36.80;97361.38;5116456;28;20019;-65
2022/03/11 09:21:22;;;;;;;3.97;2.85;;;;;;;-1.49;36.94;97347.22;5116084;28;20039;-65
2022/03/11 09:23:48;;;;;;;4.03;3.28;;;;;;;-1.40;37.35;97350.00;5116328;28;20028;-65
2022/03/11 09:26:14;;;;;;;6.65;3.67;;;;;;;-1.20;38.61;97342.72;5116326;28;20023;-65
2022/03/11 09:28:40;;;;;;;5.25;3.20;;;;;;;-1.14;37.59;97347.13;5116296;28;20027;-66
2022/03/11 09:31:10;;;;;;;6.72;3.53;;;;;;;-1.28;37.35;97349.41;5116265;28;20027;-64
2022/03/11 09:33:37;;;;;;;4.35;2.92;;;;;;;-1.33;37.76;97344.16;5116187;28;20067;-65
2022/03/11 09:36:03;;;;;;;7.05;3.17;;;;;;;-1.20;39.00;97329.88;5116118;28;20373;-65
2022/03/11 09:38:29;;;;;;;3.72;2.90;;;;;;;-0.90;39.17;97346.75;5116050;28;20099;-66
2022/03/11 09:40:56;;;;;;;7.40;3.72;;;;;;;-0.87;38.33;97330.56;5116063;28;20095;-64
2022/03/11 09:43:22;;;;;;;3.50;3.10;;;;;;;-0.67;37.91;97333.50;5116032;28;20028;-65
2022/03/11 09:45:48;;;;;;;7.57;3.67;;;;;;;-0.40;37.56;97341.72;5116014;28;20023;-66
2022/03/11 09:48:16;;;;;;;4.65;3.45;;;;;;;-0.60;37.55;97337.06;5115797;28;20022;-64
2022/03/11 09:50:43;;;;;;;5.85;3.72;;;;;;;-0.41;37.82;97340.00;5115769;28;20030;-66
2022/03/11 09:53:10;;;;;;;6.70;3.80;;;;;;;-0.43;37.00;97326.22;5115829;28;20023;-65
2022/03/11 09:55:36;;;;;;;5.47;3.55;;;;;;;-0.29;38.04;97334.19;5115612;28;20023;-63
2022/03/11 09:58:02;;;;;;;7.53;3.33;;;;;;;-0.35;37.95;97337.53;5115706;28;20031;-65
2022/03/11 10:00:28;;;;;;;6.72;3.70;;;;;;;-0.46;36.42;97331.31;5115731;28;20028;-66
2022/03/11 10:02:55;;;;;;;5.80;3.67;;;;;;;-0.44;37.76;97329.66;5115570;28;20072;-65
2022/03/11 10:05:22;;;;;;;5.45;3.55;;;;;;;-0.36;37.00;97333.22;5115566;28;20024;-66
2022/03/11 10:07:59;;;;;;;4.93;3.15;;;;;;;-0.17;37.69;97338.69;5115506;28;20042;-66
2022/03/11 10:10:25;;;;;;;9.43;3.33;;;;;;;-0.17;37.50;97331.84;5115699;28;20038;-66
2022/03/11 10:12:53;;;;;;;6.38;3.05;;;;;;;-0.18;36.50;97327.53;5115625;28;20380;-67
2022/03/11 10:15:27;;;;;;;5.82;3.42;;;;;;;-0.29;36.39;97319.66;5115384;28;20092;-64
2022/03/11 10:17:53;;;;;;;5.65;3.78;;;;;;;-0.17;35.82;97325.84;5115385;28;20028;-64
2022/03/11 10:20:19;;;;;;;5.00;3.28;;;;;;;-0.07;35.84;97324.28;5114801;27;20040;-64
2022/03/11 10:22:45;;;;;;;5.93;2.92;;;;;;;-0.23;35.41;97321.47;5114624;28;20034;-65
2022/03/11 10:25:18;;;;;;;7.53;3.90;;;;;;;-0.22;34.83;97320.59;5115107;28;20019;-66
2022/03/11 10:28:03;;;;;;;4.80;3.47;;;;;;;0.03;41.04;97317.59;5115211;28;20060;-66
2022/03/11 10:30:31;;;;;;;5.28;3.25;;;;;;;0.10;37.61;97320.28;5115338;27;20034;-64
2022/03/11 10:32:59;;;;;;;7.00;4.03;;;;;;;0.14;38.72;97297.16;5114939;28;20038;-64
2022/03/11 10:35:37;;;;;;;5.57;3.40;;;;;;;-0.02;36.54;97315.81;5114980;28;20023;-63
2022/03/11 10:38:04;;;;;;;7.50;3.75;;;;;;;0.21;37.71;97299.84;5114939;28;20050;-63
2022/03/11 10:40:35;;;;;;;4.45;2.65;;;;;;;-0.13;35.05;97294.16;5115361;28;20028;-65
2022/03/11 10:43:18;;;;;;;3.78;2.42;;;;;;;-0.74;35.61;97303.41;5114830;28;20541;-65
2022/03/11 10:46:07;;;;;;;3.90;2.70;;;;;;;-0.84;38.79;97306.63;5115042;28;20036;-64
2022/03/11 10:48:47;;;;;;;6.40;3.05;;;;;;;-1.02;37.74;97300.28;5109119;28;20060;-63
2022/03/11 10:51:24;;;;;;;4.18;3.20;;;;;;;-0.73;38.64;97288.84;5115108;28;20019;-63
2022/03/11 10:53:50;;;;;;;5.70;3.20;;;;;;;-0.51;37.52;97305.53;5114721;28;20039;-64
2022/03/11 10:56:35;;;;;;;5.03;3.70;;;;;;;-0.52;37.00;97303.78;5114518;28;20461;-66
2022/03/11 10:59:12;;;;;;;4.10;3.17;;;;;;;-0.52;36.48;97288.34;5114444;28;20500;-66
2022/03/11 11:01:40;;;;;;;6.07;3.28;;;;;;;-0.46;37.14;97290.16;5114473;28;20103;-65
2022/03/11 11:04:08;;;;;;;4.43;3.33;;;;;;;-0.27;37.76;97283.66;5114503;28;20031;-66
2022/03/11 11:06:35;;;;;;;7.53;3.92;;;;;;;-0.19;36.38;97289.78;5114705;28;20020;-66
2022/03/11 11:09:02;;;;;;;6.47;3.30;;;;;;;0.00;36.85;97290.13;5114723;28;20023;-68
2022/03/11 11:11:30;;;;;;;4.75;3.03;;;;;;;0.21;35.63;97268.13;5114667;28;20020;-64
2022/03/11 11:13:55;;;;;;;7.15;3.53;;;;;;;0.03;37.28;97274.69;5114226;28;20100;-66
2022/03/11 11:16:28;;;;;;;4.65;2.72;;;;;;;-0.57;35.74;97280.56;5114410;28;20102;-63
2022/03/11 11:18:58;;;;;;;5.07;3.00;;;;;;;-0.88;36.44;97284.28;5113959;28;20110;-65
2022/03/11 11:21:25;;;;;;;4.30;3.30;;;;;;;-1.05;37.83;97277.97;5112733;28;20051;-66
2022/03/11 11:23:56;;;;;;;6.72;3.95;;;;;;;-1.06;38.33;97271.09;5114126;28;20392;-66
2022/03/11 11:26:23;;;;;;;5.60;3.25;;;;;;;-0.80;39.47;97277.59;5113996;28;20114;-66
2022/03/11 11:29:00;;;;;;;6.03;4.28;;;;;;;-0.63;38.43;97270.19;5114374;28;20065;-65
2022/03/11 11:31:26;;;;;;;4.68;3.03;;;;;;;-0.78;37.10;97278.50;5112960;28;20426;-65